createdAt,value
2023-02-28T00:01:33.398Z,63.67
2023-02-28T00:04:01.485Z,65.24
2023-02-28T00:06:29.768Z,65.10
2023-02-28T00:08:57.633Z,64.90
2023-02-28T00:11:25.610Z,65.04
2023-02-28T00:13:53.464Z,64.91
2023-02-28T00:16:23.360Z,65.01
2023-02-28T00:18:52.417Z,65.27
2023-02-28T00:21:21.394Z,65.19
2023-02-28T00:23:49.738Z,65.57
2023-02-28T00:26:18.702Z,65.29
2023-02-28T00:28:48.138Z,64.82
2023-02-28T00:31:15.996Z,65.16
2023-02-28T00:33:44.200Z,65.49
2023-02-28T00:36:12.896Z,65.48
2023-02-28T00:38:41.668Z,65.02
2023-02-28T00:41:09.942Z,65.06
2023-02-28T00:43:39.650Z,66.02
2023-02-28T00:46:08.922Z,66.06
2023-02-28T00:48:37.151Z,66.10
2023-02-28T00:51:05.709Z,66.17
2023-02-28T00:53:33.971Z,66.23
2023-02-28T00:56:02.773Z,66.28
2023-02-28T00:58:31.463Z,67.02
2023-02-28T06:33:35.446Z,73.12
2023-02-28T06:36:04.350Z,72.63
2023-02-28T06:38:32.756Z,71.96
2023-02-28T06:41:01.795Z,71.95
2023-02-28T06:43:31.968Z,72.05
2023-02-28T06:46:02.071Z,72.19
2023-02-28T06:48:29.973Z,71.99
2023-02-28T06:51:14.301Z,72.03
2023-02-28T06:53:42.841Z,72.01
2023-02-28T06:56:13.621Z,71.66
2023-02-28T06:58:42.004Z,71.33
2023-02-28T07:01:10.062Z,71.17
2023-02-28T07:03:38.258Z,71.32
2023-02-28T07:06:07.274Z,71.55
2023-02-28T07:08:37.007Z,71.11
2023-02-28T07:11:05.728Z,71.48
2023-02-28T07:13:33.587Z,70.88
2023-02-28T07:16:04.804Z,71.31
2023-02-28T07:18:33.367Z,71.29
2023-02-28T07:21:04.256Z,70.94
2023-02-28T07:23:32.524Z,71.02
2023-02-28T07:26:00.624Z,70.66
2023-02-28T07:28:29.254Z,70.82
2023-02-28T07:30:57.276Z,70.39
2023-02-28T07:33:25.370Z,70.51
2023-02-28T07:35:53.214Z,70.38
2023-02-28T07:38:21.051Z,70.11
2023-02-28T07:40:49.041Z,70.15
2023-02-28T07:43:16.952Z,70.07
2023-02-28T07:45:44.770Z,69.89
2023-02-28T07:48:12.628Z,69.77
2023-02-28T07:50:40.385Z,69.74
2023-02-28T07:53:08.249Z,69.71
2023-02-28T07:55:36.217Z,69.50
2023-02-28T07:58:04.024Z,69.33
2023-02-28T08:00:33.280Z,69.25
2023-02-28T08:03:01.252Z,69.19
2023-02-28T08:05:29.473Z,69.06
2023-02-28T08:07:57.496Z,68.93
2023-02-28T08:10:25.377Z,69.05
2023-02-28T08:12:53.229Z,68.81
2023-02-28T08:15:21.092Z,68.58
2023-02-28T08:17:49.071Z,68.69
2023-02-28T08:20:17.230Z,68.63
2023-02-28T08:22:46.055Z,68.67
2023-02-28T08:25:14.000Z,68.59
2023-02-28T08:27:42.060Z,68.55
2023-02-28T08:30:14.345Z,68.33
2023-02-28T08:32:42.576Z,68.21
2023-02-28T08:35:10.874Z,65.65
2023-02-28T08:37:38.842Z,65.66
2023-02-28T08:40:07.670Z,67.01
2023-02-28T08:42:36.006Z,67.62
2023-02-28T08:45:04.340Z,67.79
2023-02-28T08:47:32.345Z,67.28
2023-02-28T08:50:00.121Z,66.86
2023-02-28T08:52:28.288Z,66.92
2023-02-28T08:54:56.252Z,66.57
2023-02-28T08:57:24.113Z,66.81
2023-02-28T08:59:52.712Z,66.50
2023-02-28T09:02:20.868Z,66.82
2023-02-28T09:04:48.835Z,66.42
2023-02-28T09:07:16.923Z,66.54
2023-02-28T09:09:55.214Z,66.07
2023-02-28T09:12:27.634Z,66.16
2023-02-28T09:14:55.464Z,66.54
2023-02-28T09:17:23.428Z,66.30
2023-02-28T09:19:51.250Z,66.15
2023-02-28T09:22:19.183Z,65.77
2023-02-28T09:24:47.020Z,65.56
2023-02-28T09:27:14.885Z,65.50
2023-02-28T09:29:42.908Z,64.34
2023-02-28T09:32:10.797Z,65.43
2023-02-28T09:34:39.423Z,65.11
2023-02-28T09:37:07.400Z,63.88
2023-02-28T09:39:35.485Z,63.30
2023-02-28T09:42:05.100Z,63.56
2023-02-28T09:44:38.060Z,63.75
2023-02-28T09:47:38.884Z,64.11
2023-02-28T09:50:29.688Z,64.50
2023-02-28T09:52:57.564Z,63.83
2023-02-28T09:55:41.376Z,62.81
2023-02-28T09:58:24.422Z,62.72
2023-02-28T10:01:03.591Z,61.79
2023-02-28T10:03:52.297Z,62.66
2023-02-28T10:06:29.379Z,62.08
2023-02-28T10:09:15.820Z,61.05
2023-02-28T10:14:22.775Z,61.57
2023-02-28T10:17:00.368Z,60.66
2023-02-28T10:19:51.170Z,61.27
2023-02-28T10:22:24.282Z,59.55
2023-02-28T10:24:54.090Z,60.66
2023-02-28T10:27:29.817Z,61.03
2023-02-28T10:30:01.626Z,61.78
2023-02-28T10:32:39.283Z,60.48
2023-02-28T10:35:25.272Z,60.64
2023-02-28T10:37:58.866Z,60.28
2023-02-28T10:40:39.533Z,59.65
2023-02-28T10:43:21.752Z,60.31
2023-02-28T10:46:16.478Z,59.17
2023-02-28T10:49:00.684Z,60.21
2023-02-28T10:51:37.454Z,59.97
2023-02-28T10:54:06.268Z,59.72
2023-02-28T10:56:34.710Z,59.20
2023-02-28T10:59:04.578Z,59.69
2023-02-28T11:01:46.519Z,59.42
2023-02-28T11:04:24.531Z,59.27
2023-02-28T11:07:02.734Z,58.57
2023-02-28T11:09:33.263Z,57.45
2023-02-28T11:12:02.457Z,58.27
2023-02-28T11:14:35.441Z,58.34
2023-02-28T11:17:21.849Z,58.41
2023-02-28T11:19:54.527Z,58.03
2023-02-28T11:22:30.011Z,58.08
2023-02-28T11:25:02.545Z,56.85
2023-02-28T11:27:34.885Z,57.11
2023-02-28T11:30:02.774Z,56.89
2023-02-28T11:32:31.872Z,57.03
2023-02-28T11:35:18.089Z,56.64
2023-02-28T11:37:47.062Z,56.99
2023-02-28T11:40:59.371Z,57.91
2023-02-28T11:43:57.451Z,56.53
2023-02-28T11:46:25.228Z,56.74
2023-02-28T11:49:08.026Z,57.07
2023-02-28T11:51:43.252Z,57.71
2023-02-28T11:54:32.624Z,57.64
2023-02-28T11:57:15.446Z,56.82
2023-02-28T12:00:14.457Z,57.80
2023-02-28T12:03:03.927Z,56.99
2023-02-28T12:05:47.156Z,57.26
2023-02-28T12:08:33.969Z,57.71
2023-02-28T12:11:34.070Z,57.21
2023-02-28T12:14:23.453Z,56.06
2023-02-28T12:17:15.892Z,56.70
2023-02-28T12:20:07.310Z,56.54
2023-02-28T12:23:05.376Z,56.97
2023-02-28T12:26:04.473Z,57.03
2023-02-28T12:28:41.897Z,57.27
2023-02-28T12:31:24.759Z,57.04
2023-02-28T12:33:57.966Z,57.36
2023-02-28T12:36:27.482Z,57.35
2023-02-28T12:39:01.495Z,57.60
2023-02-28T12:41:46.572Z,57.49
2023-02-28T12:44:20.661Z,56.27
2023-02-28T12:46:52.982Z,56.71
2023-02-28T12:49:27.014Z,57.32
2023-02-28T12:51:55.023Z,57.27
2023-02-28T12:54:25.612Z,56.21
2023-02-28T12:56:54.267Z,56.05
2023-02-28T12:59:35.509Z,56.82
2023-02-28T13:02:25.299Z,57.08
2023-02-28T13:05:27.400Z,56.36
2023-02-28T13:08:07.304Z,56.75
2023-02-28T13:10:47.655Z,56.11
2023-02-28T13:13:30.879Z,55.68
2023-02-28T13:16:07.492Z,55.86
2023-02-28T13:18:37.471Z,56.69
2023-02-28T13:21:08.008Z,56.28
2023-02-28T13:23:44.994Z,56.03
2023-02-28T13:26:14.174Z,56.24
2023-02-28T13:29:21.272Z,56.71
2023-02-28T13:32:07.613Z,56.91
2023-02-28T13:34:41.095Z,57.06
2023-02-28T13:37:43.428Z,56.73
2023-02-28T13:40:11.300Z,56.48
2023-02-28T13:42:46.190Z,56.80
2023-02-28T13:45:14.194Z,57.09
2023-02-28T13:47:52.713Z,56.42
2023-02-28T13:50:25.744Z,55.31
2023-02-28T13:53:08.710Z,56.29
2023-02-28T13:56:04.236Z,56.67
2023-02-28T13:58:50.185Z,56.53
2023-02-28T14:01:33.227Z,56.10
2023-02-28T14:04:17.127Z,56.61
2023-02-28T14:06:51.352Z,56.88
2023-02-28T14:09:34.377Z,56.85
2023-02-28T14:12:39.638Z,56.75
2023-02-28T14:15:44.920Z,56.52
2023-02-28T14:18:27.290Z,56.59
2023-02-28T14:21:26.416Z,56.88
2023-02-28T14:24:12.299Z,56.96
2023-02-28T14:26:40.152Z,57.03
2023-02-28T14:29:37.408Z,57.05
2023-02-28T14:32:23.852Z,56.94
2023-02-28T14:34:54.897Z,57.08
2023-02-28T14:37:43.192Z,57.10
2023-02-28T14:40:22.629Z,56.72
2023-02-28T14:43:00.866Z,56.70
2023-02-28T14:45:32.704Z,56.75
2023-02-28T14:48:02.610Z,57.08
2023-02-28T14:50:38.274Z,56.94
2023-02-28T14:53:16.616Z,56.97
2023-02-28T14:55:47.562Z,57.01
2023-02-28T14:58:31.300Z,57.13
2023-02-28T15:01:02.494Z,56.50
2023-02-28T15:03:30.459Z,56.90
2023-02-28T15:06:01.211Z,57.11
2023-02-28T15:08:30.421Z,57.02
2023-02-28T15:11:06.136Z,56.55
2023-02-28T15:13:47.435Z,57.02
2023-02-28T15:16:20.482Z,57.03
2023-02-28T15:18:55.950Z,56.95
2023-02-28T15:21:26.798Z,56.99
2023-02-28T15:23:57.483Z,57.04
2023-02-28T15:26:31.587Z,57.19
2023-02-28T15:29:04.860Z,57.20
2023-02-28T15:31:50.283Z,56.92
2023-02-28T15:34:37.000Z,57.07
2023-02-28T15:37:35.135Z,56.86
2023-02-28T15:40:30.896Z,56.90
2023-02-28T15:43:16.733Z,56.90
2023-02-28T15:45:51.276Z,57.07
2023-02-28T15:48:19.296Z,57.36
2023-02-28T15:50:54.441Z,57.31
2023-02-28T15:53:26.887Z,57.43
2023-02-28T15:55:59.976Z,57.46
2023-02-28T15:58:28.755Z,57.40
2023-02-28T16:01:08.094Z,57.41
2023-02-28T16:03:42.427Z,57.50
2023-02-28T16:06:27.536Z,57.64
2023-02-28T16:08:55.438Z,57.58
2023-02-28T16:11:23.859Z,57.56
2023-02-28T16:13:53.545Z,57.75
2023-02-28T16:16:25.483Z,57.71
2023-02-28T16:18:53.906Z,57.80
2023-02-28T16:21:22.075Z,57.89
2023-02-28T16:23:50.016Z,58.14
2023-02-28T16:26:24.559Z,58.09
2023-02-28T16:28:53.478Z,58.11
2023-02-28T16:31:22.523Z,58.45
2023-02-28T16:33:50.790Z,58.16
2023-02-28T16:36:22.171Z,58.15
2023-02-28T16:38:53.409Z,58.26
2023-02-28T16:41:28.015Z,58.74
2023-02-28T16:44:01.304Z,58.68
2023-02-28T16:46:36.230Z,58.71
2023-02-28T16:49:04.420Z,58.80
2023-02-28T16:51:34.358Z,59.35
2023-02-28T16:54:03.620Z,59.32
2023-02-28T16:56:31.925Z,59.06
2023-02-28T16:59:02.937Z,59.12
2023-02-28T17:01:32.473Z,59.01
2023-02-28T17:04:00.636Z,59.53
2023-02-28T17:06:30.929Z,58.99
2023-02-28T17:09:00.463Z,59.43
2023-02-28T17:11:28.741Z,60.18
2023-02-28T17:13:56.789Z,60.30
2023-02-28T17:16:32.312Z,59.97
2023-02-28T17:19:06.321Z,61.13
2023-02-28T17:21:35.286Z,61.05
2023-02-28T17:24:04.138Z,60.69
2023-02-28T17:26:32.930Z,61.00
2023-02-28T17:29:00.974Z,60.79
2023-02-28T17:31:29.117Z,61.39
2023-02-28T17:33:57.119Z,61.09
2023-02-28T17:36:27.585Z,60.83
2023-02-28T17:38:56.499Z,60.88
2023-02-28T17:41:24.403Z,60.97
2023-02-28T17:43:52.280Z,61.21
2023-02-28T17:46:23.293Z,61.53
2023-02-28T17:48:53.321Z,61.15
2023-02-28T17:51:23.341Z,62.16
2023-02-28T17:53:51.411Z,61.81
2023-02-28T17:56:25.328Z,61.51
2023-02-28T17:58:55.139Z,61.59
2023-02-28T18:01:25.497Z,61.31
2023-02-28T18:03:54.954Z,61.52
2023-02-28T18:06:28.613Z,61.36
2023-02-28T18:08:56.730Z,61.82
2023-02-28T18:11:25.820Z,61.63
2023-02-28T18:13:56.972Z,62.01
2023-02-28T18:16:24.735Z,62.22
2023-02-28T18:18:53.248Z,62.72
2023-02-28T18:21:21.071Z,62.64
2023-02-28T18:23:49.553Z,62.32
2023-02-28T18:26:19.362Z,62.14
2023-02-28T18:28:48.257Z,62.53
2023-02-28T18:31:20.440Z,62.57
2023-02-28T18:33:50.434Z,62.39
2023-02-28T18:36:21.065Z,63.26
2023-02-28T18:38:50.767Z,63.26
2023-02-28T18:41:21.722Z,62.67
2023-02-28T18:43:52.170Z,63.88
2023-02-28T18:46:22.014Z,63.48
2023-02-28T18:48:49.913Z,64.24
2023-02-28T18:51:21.236Z,64.24
2023-02-28T18:53:49.650Z,63.80
2023-02-28T18:56:23.455Z,64.01
2023-02-28T18:58:52.640Z,64.25
2023-02-28T19:01:30.238Z,64.60
2023-02-28T19:04:03.794Z,64.35
2023-02-28T19:06:33.779Z,63.55
2023-02-28T19:09:03.848Z,66.48
2023-02-28T19:11:32.614Z,65.18
2023-02-28T19:14:01.540Z,63.65
2023-02-28T19:16:29.929Z,63.43
2023-02-28T19:18:58.090Z,63.78
2023-02-28T19:21:26.472Z,64.56
2023-02-28T19:23:54.644Z,65.03
2023-02-28T19:26:25.172Z,64.58
2023-02-28T19:28:53.032Z,65.66
2023-02-28T19:31:26.173Z,66.99
2023-02-28T19:33:54.971Z,65.69
2023-02-28T19:36:23.701Z,65.01
2023-02-28T19:38:51.560Z,64.71
2023-02-28T19:41:19.943Z,64.69
2023-02-28T19:43:48.011Z,65.09
2023-02-28T19:46:16.334Z,66.50
2023-02-28T19:48:45.033Z,67.22
2023-02-28T19:51:14.812Z,67.23
2023-02-28T19:53:43.165Z,66.50
2023-02-28T19:56:11.742Z,66.16
2023-02-28T19:58:39.719Z,66.82
2023-02-28T20:01:17.148Z,64.80
2023-02-28T20:03:56.846Z,64.23
2023-02-28T20:06:25.014Z,65.30
2023-02-28T20:08:55.057Z,65.76
2023-02-28T20:11:23.107Z,66.10
2023-02-28T20:13:53.553Z,66.83
2023-02-28T20:16:21.533Z,66.09
2023-02-28T20:18:54.379Z,67.29
2023-02-28T20:21:22.144Z,66.78
2023-02-28T20:23:50.322Z,65.88
2023-02-28T20:26:20.308Z,66.63
2023-02-28T20:28:48.403Z,66.88
2023-02-28T20:31:19.042Z,67.33
2023-02-28T20:33:49.156Z,67.76
2023-02-28T20:36:19.891Z,66.03
2023-02-28T20:38:47.851Z,65.93
2023-02-28T20:41:16.205Z,67.08
2023-02-28T20:43:44.979Z,67.57
2023-02-28T20:46:13.401Z,68.54
2023-02-28T20:48:41.279Z,66.57
2023-02-28T20:51:09.239Z,67.31
2023-02-28T20:53:37.049Z,67.48
2023-02-28T20:56:16.260Z,68.16
2023-02-28T20:58:47.481Z,67.92
2023-02-28T21:01:18.601Z,68.21
2023-02-28T21:03:51.851Z,68.20
2023-02-28T21:06:21.512Z,68.71
2023-02-28T21:08:49.380Z,67.52
2023-02-28T21:11:24.418Z,67.98
2023-02-28T21:13:54.466Z,67.69
2023-02-28T21:16:25.502Z,69.87
2023-02-28T21:18:54.355Z,69.64
2023-02-28T21:21:24.836Z,68.87
2023-02-28T21:23:52.753Z,69.68
2023-02-28T21:26:23.486Z,67.29
2023-02-28T21:28:56.506Z,66.98
2023-02-28T21:31:26.894Z,68.50
2023-02-28T21:33:56.710Z,66.84
2023-02-28T21:36:27.582Z,67.78
2023-02-28T21:38:57.972Z,68.27
2023-02-28T21:41:28.114Z,68.64
2023-02-28T21:43:56.688Z,69.44
2023-02-28T21:46:28.483Z,68.18
2023-02-28T21:48:57.266Z,67.88
2023-02-28T21:51:29.176Z,68.70
2023-02-28T21:54:00.687Z,69.26
2023-02-28T21:56:31.923Z,69.59
2023-02-28T21:59:01.623Z,69.79
2023-02-28T22:01:50.983Z,69.63
2023-02-28T22:04:22.533Z,70.12
2023-02-28T22:06:53.954Z,69.55
2023-02-28T22:09:22.219Z,70.00
2023-02-28T22:11:50.648Z,69.47
2023-02-28T22:14:18.834Z,69.92
2023-02-28T22:16:52.721Z,69.87
2023-02-28T22:19:22.803Z,69.83
2023-02-28T22:21:51.775Z,70.35
2023-02-28T22:24:24.537Z,69.91
2023-02-28T22:26:53.355Z,69.93
2023-02-28T22:29:22.301Z,70.11
2023-02-28T22:31:51.674Z,70.30
2023-02-28T22:34:19.691Z,69.74
2023-02-28T22:36:48.005Z,69.04
2023-02-28T22:39:16.377Z,69.55
2023-02-28T22:41:44.791Z,69.95
2023-02-28T22:44:12.862Z,70.48
2023-02-28T22:46:40.851Z,70.24
2023-02-28T22:49:08.872Z,69.65
2023-02-28T22:51:36.744Z,70.33
2023-02-28T22:54:04.864Z,70.54
2023-02-28T22:56:33.099Z,69.74
2023-02-28T22:59:01.994Z,70.27
2023-02-28T23:01:32.663Z,69.66
2023-02-28T23:04:01.526Z,69.85
2023-02-28T23:06:44.225Z,70.39
2023-02-28T23:09:21.796Z,70.46
2023-02-28T23:11:51.511Z,71.03
2023-02-28T23:14:20.862Z,70.76
2023-02-28T23:16:51.680Z,70.46
2023-02-28T23:19:26.665Z,71.26
2023-02-28T23:21:54.972Z,71.15
2023-02-28T23:24:24.728Z,69.83
2023-02-28T23:26:54.555Z,69.53
2023-02-28T23:29:23.317Z,69.95
2023-02-28T23:31:51.729Z,69.81
2023-02-28T23:34:30.441Z,70.19
2023-02-28T23:37:00.837Z,70.40
2023-02-28T23:39:30.084Z,70.68
2023-02-28T23:41:58.587Z,69.90
2023-02-28T23:44:26.419Z,70.96
2023-02-28T23:46:54.496Z,70.59
2023-02-28T23:49:23.598Z,70.72
2023-02-28T23:51:52.317Z,70.80
2023-02-28T23:54:20.543Z,70.51
2023-02-28T23:56:48.319Z,71.24
2023-02-28T23:59:16.173Z,71.04
